createdAt,value
2022-08-28T00:00:14.163Z,101024.00
2022-08-28T00:02:41.296Z,101031.00
2022-08-28T00:05:11.537Z,101027.00
2022-08-28T00:07:38.293Z,101027.00
2022-08-28T00:10:06.130Z,101019.00
2022-08-28T00:12:32.550Z,101029.00
2022-08-28T00:15:00.188Z,101019.00
2022-08-28T00:17:26.689Z,101022.00
2022-08-28T00:19:53.150Z,101023.00
2022-08-28T00:22:19.662Z,101018.00
2022-08-28T00:24:46.146Z,101023.00
2022-08-28T00:27:31.135Z,101022.00
2022-08-28T00:29:57.600Z,101022.00
2022-08-28T00:32:27.025Z,101023.00
2022-08-28T00:34:53.602Z,101023.00
2022-08-28T00:37:20.052Z,101011.00
2022-08-28T00:39:51.192Z,101015.00
2022-08-28T00:42:18.340Z,101012.00
2022-08-28T00:44:47.794Z,101017.00
2022-08-28T00:47:14.352Z,101016.00
2022-08-28T00:49:48.724Z,101012.00
2022-08-28T00:52:16.086Z,101023.00
2022-08-28T00:54:59.369Z,101015.00
2022-08-28T00:57:49.696Z,101025.00
2022-08-28T01:00:18.317Z,101020.00
2022-08-28T01:02:44.819Z,101021.00
2022-08-28T01:05:13.060Z,101019.00
2022-08-28T01:07:40.558Z,101020.00
2022-08-28T01:10:12.691Z,101021.00
2022-08-28T01:12:39.203Z,101011.00
2022-08-28T01:15:11.780Z,101020.00
2022-08-28T01:17:43.810Z,101024.00
2022-08-28T01:20:16.126Z,101019.00
2022-08-28T01:22:50.303Z,101027.00
2022-08-28T01:25:21.155Z,101033.00
2022-08-28T01:27:47.800Z,101028.00
2022-08-28T01:30:18.507Z,101028.00
2022-08-28T01:32:47.872Z,101017.00
2022-08-28T01:35:18.091Z,101022.00
2022-08-28T01:37:45.723Z,101026.00
2022-08-28T01:40:17.693Z,101027.00
2022-08-28T01:42:44.645Z,101031.00
2022-08-28T01:45:14.793Z,101026.00
2022-08-28T01:47:42.826Z,101029.00
2022-08-28T01:50:11.759Z,101033.00
2022-08-28T01:52:38.989Z,101021.00
2022-08-28T01:55:06.665Z,101031.00
2022-08-28T01:57:33.926Z,101026.00
2022-08-28T02:00:00.417Z,101024.00
2022-08-28T02:02:26.858Z,101026.00
2022-08-28T02:04:53.794Z,101022.00
2022-08-28T02:07:20.388Z,101024.00
2022-08-28T02:09:46.838Z,101027.00
2022-08-28T02:12:13.275Z,101026.00
2022-08-28T02:14:39.767Z,101029.00
2022-08-28T02:17:06.223Z,101031.00
2022-08-28T02:19:32.679Z,101025.00
2022-08-28T02:21:59.287Z,101026.00
2022-08-28T02:24:25.797Z,101023.00
2022-08-28T02:26:52.335Z,101025.00
2022-08-28T02:29:18.939Z,101025.00
2022-08-28T02:31:45.649Z,101028.00
2022-08-28T02:34:12.090Z,101025.00
2022-08-28T02:36:42.565Z,101023.00
2022-08-28T02:39:09.572Z,101036.00
2022-08-28T02:41:36.095Z,101027.00
2022-08-28T02:44:02.685Z,101030.00
2022-08-28T02:46:29.556Z,101036.00
2022-08-28T02:48:56.451Z,101035.00
2022-08-28T02:51:24.224Z,101033.00
2022-08-28T02:53:52.170Z,101034.00
2022-08-28T02:56:19.021Z,101043.00
2022-08-28T02:58:45.463Z,101035.00
2022-08-28T03:01:13.311Z,101041.00
2022-08-28T03:03:41.485Z,101042.00
2022-08-28T03:06:09.391Z,101038.00
2022-08-28T03:08:35.870Z,101034.00
2022-08-28T03:11:02.313Z,101042.00
2022-08-28T03:13:30.047Z,101042.00
2022-08-28T03:15:57.238Z,101043.00
2022-08-28T03:18:25.705Z,101041.00
2022-08-28T03:20:53.700Z,101037.00
2022-08-28T03:23:26.294Z,101034.00
2022-08-28T03:26:24.057Z,101036.00
2022-08-28T03:28:52.738Z,101039.00
2022-08-28T03:31:23.925Z,101034.00
2022-08-28T03:33:51.216Z,101040.00
2022-08-28T03:36:21.499Z,101037.00
2022-08-28T03:38:49.359Z,101040.00
2022-08-28T03:41:18.995Z,101039.00
2022-08-28T03:43:45.779Z,101040.00
2022-08-28T03:46:15.234Z,101040.00
2022-08-28T03:48:42.672Z,101040.00
2022-08-28T03:51:14.840Z,101045.00
2022-08-28T03:53:42.422Z,101040.00
2022-08-28T03:56:12.560Z,101043.00
2022-08-28T03:58:40.747Z,101050.00
2022-08-28T04:01:08.097Z,101049.00
2022-08-28T04:03:34.906Z,101059.00
2022-08-28T04:06:01.692Z,101052.00
2022-08-28T04:08:29.357Z,101055.00
2022-08-28T04:10:56.151Z,101054.00
2022-08-28T04:13:22.975Z,101058.00
2022-08-28T04:16:00.992Z,101059.00
2022-08-28T04:18:28.125Z,101059.00
2022-08-28T04:21:03.367Z,101059.00
2022-08-28T04:23:30.139Z,101063.00
2022-08-28T04:25:56.672Z,101067.00
2022-08-28T04:28:24.830Z,101069.00
2022-08-28T04:30:54.503Z,101071.00
2022-08-28T04:33:22.930Z,101081.00
2022-08-28T04:35:49.490Z,101082.00
2022-08-28T04:38:16.266Z,101078.00
2022-08-28T04:40:43.151Z,101092.00
2022-08-28T04:43:10.346Z,101094.00
2022-08-28T04:45:41.381Z,101091.00
2022-08-28T04:48:09.067Z,101089.00
2022-08-28T04:50:42.362Z,101094.00
2022-08-28T04:53:09.242Z,101093.00
2022-08-28T04:55:54.304Z,101095.00
2022-08-28T04:58:23.635Z,101096.00
2022-08-28T05:00:52.816Z,101090.00
2022-08-28T05:03:20.135Z,101091.00
2022-08-28T05:05:51.036Z,101096.00
2022-08-28T05:08:20.364Z,101103.00
2022-08-28T05:10:48.472Z,101099.00
2022-08-28T05:13:16.480Z,101103.00
2022-08-28T05:15:45.860Z,101101.00
2022-08-28T05:18:14.202Z,101105.00
2022-08-28T05:20:42.802Z,101111.00
2022-08-28T05:23:10.094Z,101106.00
2022-08-28T05:25:39.505Z,101108.00
2022-08-28T05:28:11.427Z,101114.00
2022-08-28T05:30:40.202Z,101111.00
2022-08-28T05:33:07.958Z,101117.00
2022-08-28T05:35:39.921Z,101117.00
2022-08-28T05:38:06.924Z,101119.00
2022-08-28T05:40:34.354Z,101120.00
2022-08-28T05:43:00.862Z,101129.00
2022-08-28T05:45:27.303Z,101135.00
2022-08-28T05:47:54.067Z,101126.00
2022-08-28T05:50:20.570Z,101130.00
2022-08-28T05:52:47.460Z,101120.00
2022-08-28T05:55:14.320Z,101129.00
2022-08-28T05:57:41.380Z,101122.00
2022-08-28T06:00:13.696Z,101132.00
2022-08-28T06:02:42.068Z,101130.00
2022-08-28T06:05:09.403Z,101127.00
2022-08-28T06:07:39.660Z,101115.00
2022-08-28T06:10:07.403Z,101125.00
2022-08-28T06:12:37.333Z,101125.00
2022-08-28T06:15:04.090Z,101126.00
2022-08-28T06:17:31.095Z,101125.00
2022-08-28T06:19:57.539Z,101127.00
2022-08-28T06:22:24.071Z,101124.00
2022-08-28T06:24:50.674Z,101126.00
2022-08-28T06:27:17.159Z,101124.00
2022-08-28T06:29:44.717Z,101131.00
2022-08-28T06:32:11.255Z,101132.00
2022-08-28T06:34:37.782Z,101129.00
2022-08-28T06:37:04.233Z,101132.00
2022-08-28T06:39:30.857Z,101132.00
2022-08-28T06:41:57.327Z,101144.00
2022-08-28T06:44:23.838Z,101137.00
2022-08-28T06:46:52.917Z,101133.00
2022-08-28T06:49:19.990Z,101138.00
2022-08-28T06:51:46.560Z,101146.00
2022-08-28T06:54:17.295Z,101141.00
2022-08-28T06:56:48.311Z,101144.00
2022-08-28T06:59:14.933Z,101148.00
2022-08-28T07:01:41.492Z,101154.00
2022-08-28T07:04:10.317Z,101157.00
2022-08-28T07:06:39.707Z,101152.00
2022-08-28T07:09:08.622Z,101163.00
2022-08-28T07:11:36.673Z,101164.00
2022-08-28T07:14:04.467Z,101154.00
2022-08-28T07:16:34.206Z,101160.00
2022-08-28T07:19:04.280Z,101162.00
2022-08-28T07:21:31.772Z,101164.00
2022-08-28T07:23:58.360Z,101172.00
2022-08-28T07:26:26.080Z,101178.00
2022-08-28T07:29:09.364Z,101183.00
2022-08-28T07:31:39.372Z,101179.00
2022-08-28T07:34:05.826Z,101177.00
2022-08-28T07:36:32.319Z,101186.00
2022-08-28T07:38:59.651Z,101185.00
2022-08-28T07:41:28.843Z,101195.00
2022-08-28T07:44:13.745Z,101198.00
2022-08-28T07:46:41.158Z,101204.00
2022-08-28T07:49:08.751Z,101212.00
2022-08-28T07:51:35.695Z,101207.00
2022-08-28T07:54:04.200Z,101215.00
2022-08-28T07:56:31.642Z,101215.00
2022-08-28T07:58:58.405Z,101211.00
2022-08-28T08:01:27.145Z,101216.00
2022-08-28T08:03:55.902Z,101218.00
2022-08-28T08:06:31.021Z,101212.00
2022-08-28T08:09:03.323Z,101218.00
2022-08-28T08:11:32.475Z,101224.00
2022-08-28T08:14:05.456Z,101232.00
2022-08-28T08:16:35.122Z,101235.00
2022-08-28T08:19:01.872Z,101227.00
2022-08-28T08:21:30.411Z,101230.00
2022-08-28T08:23:57.339Z,101222.00
2022-08-28T08:26:26.032Z,101229.00
2022-08-28T08:28:52.504Z,101227.00
2022-08-28T08:31:26.225Z,101228.00
2022-08-28T08:33:55.962Z,101228.00
2022-08-28T08:36:24.682Z,101234.00
2022-08-28T08:38:59.882Z,101237.00
2022-08-28T08:41:48.401Z,101244.00
2022-08-28T08:44:33.527Z,101246.00
2022-08-28T08:47:22.569Z,101249.00
2022-08-28T08:49:54.539Z,101239.00
2022-08-28T08:52:45.563Z,101244.00
2022-08-28T08:55:24.949Z,101249.00
2022-08-28T08:58:00.730Z,101243.00
2022-08-28T09:00:28.517Z,101246.00
2022-08-28T09:03:04.542Z,101246.00
2022-08-28T09:06:00.503Z,101245.00
2022-08-28T09:08:47.471Z,101255.00
2022-08-28T09:11:29.183Z,101244.00
2022-08-28T09:14:20.506Z,101247.00
2022-08-28T09:16:47.519Z,101253.00
2022-08-28T09:19:19.215Z,101251.00
2022-08-28T09:21:47.214Z,101253.00
2022-08-28T09:24:26.478Z,101251.00
2022-08-28T09:26:56.465Z,101257.00
2022-08-28T09:29:36.730Z,101262.00
2022-08-28T09:32:23.419Z,101264.00
2022-08-28T09:35:23.952Z,101261.00
2022-08-28T09:37:50.542Z,101269.00
2022-08-28T09:40:22.405Z,101263.00
2022-08-28T09:43:27.729Z,101264.00
2022-08-28T09:46:16.521Z,101266.00
2022-08-28T09:48:44.818Z,101264.00
2022-08-28T09:51:28.592Z,101261.00
2022-08-28T09:53:54.976Z,101268.00
2022-08-28T09:56:35.583Z,101275.00
2022-08-28T09:59:06.674Z,101273.00
2022-08-28T10:01:53.526Z,101277.00
2022-08-28T10:04:45.390Z,101276.00
2022-08-28T10:07:18.459Z,101282.00
2022-08-28T10:09:57.138Z,101283.00
2022-08-28T10:12:45.836Z,101281.00
2022-08-28T10:15:22.012Z,101286.00
2022-08-28T10:18:14.063Z,101283.00
2022-08-28T10:20:55.093Z,101291.00
2022-08-28T10:23:45.723Z,101288.00
2022-08-28T10:26:28.787Z,101294.00
2022-08-28T10:29:41.588Z,101301.00
2022-08-28T10:32:46.794Z,101306.00
2022-08-28T10:35:25.412Z,101297.00
2022-08-28T10:37:57.659Z,101311.00
2022-08-28T10:40:29.422Z,101300.00
2022-08-28T10:43:03.924Z,101306.00
2022-08-28T10:45:32.762Z,101309.00
2022-08-28T10:48:07.296Z,101299.00
2022-08-28T10:50:47.879Z,101308.00
2022-08-28T10:53:19.348Z,101306.00
2022-08-28T10:55:54.228Z,101313.00
2022-08-28T10:58:25.560Z,101320.00
2022-08-28T11:00:56.846Z,101318.00
2022-08-28T11:03:35.433Z,101320.00
2022-08-28T11:06:11.831Z,101332.00
2022-08-28T11:08:39.731Z,101318.00
2022-08-28T11:11:13.591Z,101335.00
2022-08-28T11:13:49.148Z,101330.00
2022-08-28T11:16:22.563Z,101333.00
2022-08-28T11:19:06.268Z,101340.00
2022-08-28T11:21:44.424Z,101333.00
2022-08-28T11:24:26.329Z,101335.00
2022-08-28T11:27:18.464Z,101335.00
2022-08-28T11:30:28.652Z,101341.00
2022-08-28T11:32:59.378Z,101351.00
2022-08-28T11:35:42.999Z,101342.00
2022-08-28T11:38:10.614Z,101349.00
2022-08-28T11:40:52.518Z,101346.00
2022-08-28T11:43:21.705Z,101347.00
2022-08-28T11:45:48.311Z,101344.00
2022-08-28T11:48:33.694Z,101347.00
2022-08-28T11:51:20.100Z,101348.00
2022-08-28T11:53:59.765Z,101345.00
2022-08-28T11:56:44.511Z,101344.00
2022-08-28T11:59:42.336Z,101346.00
2022-08-28T12:02:33.749Z,101333.00
2022-08-28T12:05:00.270Z,101330.00
2022-08-28T12:07:34.575Z,101336.00
2022-08-28T12:10:05.026Z,101337.00
2022-08-28T12:12:53.377Z,101334.00
2022-08-28T12:15:39.363Z,101331.00
2022-08-28T12:18:11.920Z,101329.00
2022-08-28T12:20:58.535Z,101330.00
2022-08-28T12:23:31.550Z,101331.00
2022-08-28T12:26:22.553Z,101332.00
2022-08-28T12:28:58.646Z,101331.00
2022-08-28T12:32:02.626Z,101338.00
2022-08-28T12:34:50.134Z,101332.00
2022-08-28T12:37:43.974Z,101342.00
2022-08-28T12:40:40.127Z,101344.00
2022-08-28T12:43:15.555Z,101335.00
2022-08-28T12:45:58.033Z,101349.00
2022-08-28T12:48:29.132Z,101355.00
2022-08-28T12:51:03.301Z,101334.00
2022-08-28T12:53:38.950Z,101335.00
2022-08-28T12:56:07.516Z,101338.00
2022-08-28T12:58:36.745Z,101327.00
2022-08-28T13:01:09.158Z,101329.00
2022-08-28T13:03:44.702Z,101327.00
2022-08-28T13:06:11.174Z,101324.00
2022-08-28T13:08:38.711Z,101324.00
2022-08-28T13:11:05.811Z,101316.00
2022-08-28T13:13:37.791Z,101312.00
2022-08-28T13:16:12.771Z,101312.00
2022-08-28T13:18:52.060Z,101302.00
2022-08-28T13:21:33.971Z,101302.00
2022-08-28T13:24:23.920Z,101279.00
2022-08-28T13:27:00.910Z,101305.00
2022-08-28T13:29:27.510Z,101309.00
2022-08-28T13:32:08.464Z,101300.00
2022-08-28T13:34:39.014Z,101276.00
2022-08-28T13:37:50.507Z,101270.00
2022-08-28T13:43:15.742Z,101268.00
2022-08-28T13:45:45.153Z,101289.00
2022-08-28T13:48:14.044Z,101252.00
2022-08-28T13:50:46.554Z,101258.00
2022-08-28T13:53:15.400Z,101258.00
2022-08-28T13:55:42.972Z,101259.00
2022-08-28T13:58:10.812Z,101256.00
2022-08-28T14:00:41.625Z,101257.00
2022-08-28T14:03:26.711Z,101246.00
2022-08-28T14:05:54.243Z,101253.00
2022-08-28T14:08:21.909Z,101248.00
2022-08-28T14:10:48.801Z,101255.00
2022-08-28T14:13:15.884Z,101252.00
2022-08-28T14:15:42.309Z,101244.00
2022-08-28T14:18:08.839Z,101255.00
2022-08-28T14:20:35.609Z,101247.00
2022-08-28T14:23:02.117Z,101239.00
2022-08-28T14:25:28.609Z,101260.00
2022-08-28T14:27:55.886Z,101260.00
2022-08-28T14:30:23.396Z,101250.00
2022-08-28T14:32:52.181Z,101255.00
2022-08-28T14:35:18.735Z,101253.00
2022-08-28T14:37:45.601Z,101250.00
2022-08-28T14:40:12.990Z,101245.00
2022-08-28T14:42:41.775Z,101240.00
2022-08-28T14:45:08.610Z,101246.00
2022-08-28T14:47:35.057Z,101245.00
2022-08-28T14:50:01.555Z,101239.00
2022-08-28T14:52:28.331Z,101247.00
2022-08-28T14:54:55.793Z,101241.00
2022-08-28T14:57:22.448Z,101241.00
2022-08-28T14:59:49.408Z,101242.00
2022-08-28T15:02:15.859Z,101236.00
2022-08-28T15:04:42.428Z,101238.00
2022-08-28T15:07:10.819Z,101237.00
2022-08-28T15:09:40.537Z,101242.00
2022-08-28T15:12:07.285Z,101240.00
2022-08-28T15:14:34.570Z,101242.00
2022-08-28T15:17:01.228Z,101239.00
2022-08-28T15:19:28.166Z,101238.00
2022-08-28T15:21:59.011Z,101243.00
2022-08-28T15:24:29.929Z,101240.00
2022-08-28T15:26:57.848Z,101254.00
2022-08-28T15:29:24.340Z,101229.00
2022-08-28T15:31:51.318Z,101226.00
2022-08-28T15:34:21.686Z,101232.00
2022-08-28T15:36:55.085Z,101228.00
2022-08-28T15:39:43.212Z,101237.00
2022-08-28T15:42:13.109Z,101239.00
2022-08-28T15:44:39.593Z,101239.00
2022-08-28T15:47:06.836Z,101240.00
2022-08-28T15:49:43.449Z,101238.00
2022-08-28T15:52:18.539Z,101238.00
2022-08-28T15:54:45.037Z,101264.00
2022-08-28T15:57:11.607Z,101237.00
2022-08-28T15:59:49.177Z,101257.00
2022-08-28T16:02:17.795Z,101251.00
2022-08-28T16:04:44.292Z,101251.00
2022-08-28T16:07:11.779Z,101242.00
2022-08-28T16:09:38.302Z,101241.00
2022-08-28T16:12:05.059Z,101242.00
2022-08-28T16:14:32.941Z,101241.00
2022-08-28T16:16:59.784Z,101244.00
2022-08-28T16:19:32.684Z,101245.00
2022-08-28T16:21:59.129Z,101250.00
2022-08-28T16:24:25.973Z,101253.00
2022-08-28T16:26:52.494Z,101252.00
2022-08-28T16:29:18.954Z,101254.00
2022-08-28T16:31:47.868Z,101249.00
2022-08-28T16:34:14.903Z,101257.00
2022-08-28T16:36:48.467Z,101256.00
2022-08-28T16:39:15.198Z,101256.00
2022-08-28T16:41:43.388Z,101257.00
2022-08-28T16:44:09.872Z,101265.00
2022-08-28T16:46:36.400Z,101265.00
2022-08-28T16:49:03.731Z,101263.00
2022-08-28T16:51:30.207Z,101261.00
2022-08-28T16:53:57.642Z,101259.00
2022-08-28T16:56:24.476Z,101260.00
2022-08-28T16:58:53.107Z,101265.00
2022-08-28T17:01:23.865Z,101262.00
2022-08-28T17:03:50.517Z,101260.00
2022-08-28T17:06:23.489Z,101262.00
2022-08-28T17:08:55.937Z,101272.00
2022-08-28T17:11:24.454Z,101275.00
2022-08-28T17:13:50.928Z,101269.00
2022-08-28T17:16:18.462Z,101274.00
2022-08-28T17:18:47.496Z,101277.00
2022-08-28T17:21:37.447Z,101279.00
2022-08-28T17:24:04.265Z,101276.00
2022-08-28T17:26:30.708Z,101287.00
2022-08-28T17:28:57.171Z,101285.00
2022-08-28T17:31:23.726Z,101290.00
2022-08-28T17:33:50.253Z,101284.00
2022-08-28T17:36:32.414Z,101287.00
2022-08-28T17:39:04.141Z,101288.00
2022-08-28T17:41:31.975Z,101289.00
2022-08-28T17:43:59.388Z,101292.00
2022-08-28T17:46:26.142Z,101296.00
2022-08-28T17:48:55.387Z,101298.00
2022-08-28T17:51:33.826Z,101304.00
2022-08-28T17:54:10.816Z,101298.00
2022-08-28T17:56:37.953Z,101309.00
2022-08-28T17:59:04.972Z,101296.00
2022-08-28T18:01:31.573Z,101300.00
2022-08-28T18:03:58.430Z,101307.00
2022-08-28T18:06:24.979Z,101312.00
2022-08-28T18:08:52.065Z,101308.00
2022-08-28T18:11:19.537Z,101311.00
2022-08-28T18:13:46.432Z,101321.00
2022-08-28T18:16:13.029Z,101319.00
2022-08-28T18:18:39.623Z,101327.00
2022-08-28T18:21:06.150Z,101334.00
2022-08-28T18:23:32.700Z,101333.00
2022-08-28T18:25:59.175Z,101341.00
2022-08-28T18:28:26.609Z,101339.00
2022-08-28T18:30:53.906Z,101347.00
2022-08-28T18:33:22.417Z,101341.00
2022-08-28T18:35:50.871Z,101345.00
2022-08-28T18:38:18.315Z,101347.00
2022-08-28T18:40:45.991Z,101347.00
2022-08-28T18:43:12.714Z,101350.00
2022-08-28T18:45:40.586Z,101357.00
2022-08-28T18:48:11.064Z,101355.00
2022-08-28T18:50:37.937Z,101351.00
2022-08-28T18:53:05.384Z,101362.00
2022-08-28T18:55:32.916Z,101362.00
2022-08-28T18:58:01.279Z,101359.00
2022-08-28T19:00:27.978Z,101360.00
2022-08-28T19:02:54.907Z,101366.00
2022-08-28T19:05:21.547Z,101376.00
2022-08-28T19:07:48.472Z,101372.00
2022-08-28T19:10:32.621Z,101374.00
2022-08-28T19:13:01.383Z,101381.00
2022-08-28T19:15:28.687Z,101377.00
2022-08-28T19:17:55.463Z,101381.00
2022-08-28T19:20:22.055Z,101382.00
2022-08-28T19:22:48.725Z,101382.00
2022-08-28T19:25:22.478Z,101381.00
2022-08-28T19:27:56.366Z,101386.00
2022-08-28T19:30:25.952Z,101384.00
2022-08-28T19:32:52.679Z,101388.00
2022-08-28T19:35:19.433Z,101387.00
2022-08-28T19:37:46.371Z,101392.00
2022-08-28T19:40:13.480Z,101389.00
2022-08-28T19:42:40.384Z,101397.00
2022-08-28T19:45:10.208Z,101394.00
2022-08-28T19:47:36.679Z,101403.00
2022-08-28T19:50:04.867Z,101400.00
2022-08-28T19:52:31.343Z,101402.00
2022-08-28T19:55:00.917Z,101401.00
2022-08-28T19:57:27.422Z,101397.00
2022-08-28T19:59:54.918Z,101405.00
2022-08-28T20:02:22.808Z,101401.00
2022-08-28T20:04:49.295Z,101401.00
2022-08-28T20:07:16.312Z,101405.00
2022-08-28T20:09:42.747Z,101403.00
2022-08-28T20:12:09.208Z,101404.00
2022-08-28T20:14:38.970Z,101410.00
2022-08-28T20:17:05.458Z,101409.00
2022-08-28T20:19:33.495Z,101412.00
2022-08-28T20:21:59.990Z,101411.00
2022-08-28T20:24:26.654Z,101416.00
2022-08-28T20:26:53.398Z,101419.00
2022-08-28T20:29:21.718Z,101418.00
2022-08-28T20:31:49.671Z,101417.00
2022-08-28T20:34:19.163Z,101416.00
2022-08-28T20:36:46.213Z,101422.00
2022-08-28T20:39:12.773Z,101417.00
2022-08-28T20:41:40.452Z,101423.00
2022-08-28T20:44:09.470Z,101422.00
2022-08-28T20:46:40.766Z,101430.00
2022-08-28T20:49:12.947Z,101427.00
2022-08-28T20:51:59.279Z,101415.00
2022-08-28T20:54:32.796Z,101414.00
2022-08-28T20:57:03.599Z,101425.00
2022-08-28T20:59:39.426Z,101418.00
2022-08-28T21:02:11.838Z,101416.00
2022-08-28T21:04:39.820Z,101416.00
2022-08-28T21:07:08.397Z,101421.00
2022-08-28T21:10:01.454Z,101415.00
2022-08-28T21:12:22.395Z,101428.00
2022-08-28T21:14:52.312Z,101428.00
2022-08-28T21:17:24.371Z,101418.00
2022-08-28T21:19:55.825Z,101419.00
2022-08-28T21:22:22.303Z,101429.00
2022-08-28T21:24:48.902Z,101430.00
2022-08-28T21:27:15.432Z,101426.00
2022-08-28T21:29:45.024Z,101424.00
2022-08-28T21:32:11.562Z,101430.00
2022-08-28T21:34:38.014Z,101431.00
2022-08-28T21:37:04.464Z,101432.00
2022-08-28T21:39:30.985Z,101430.00
2022-08-28T21:41:57.705Z,101440.00
2022-08-28T21:44:25.006Z,101435.00
2022-08-28T21:46:51.493Z,101428.00
2022-08-28T21:49:18.089Z,101420.00
2022-08-28T21:51:44.736Z,101420.00
2022-08-28T21:54:12.857Z,101425.00
2022-08-28T21:56:39.372Z,101433.00
2022-08-28T21:59:06.309Z,101439.00
2022-08-28T22:01:32.854Z,101442.00
2022-08-28T22:03:59.351Z,101430.00
2022-08-28T22:06:26.429Z,101437.00
2022-08-28T22:08:53.944Z,101441.00
2022-08-28T22:11:25.252Z,101437.00
2022-08-28T22:13:55.385Z,101442.00
2022-08-28T22:16:23.010Z,101444.00
2022-08-28T22:18:50.448Z,101440.00
2022-08-28T22:21:38.682Z,101440.00
2022-08-28T22:24:05.363Z,101447.00
2022-08-28T22:26:32.946Z,101442.00
2022-08-28T22:29:00.549Z,101455.00
2022-08-28T22:31:27.260Z,101457.00
2022-08-28T22:33:53.817Z,101462.00
2022-08-28T22:36:21.454Z,101458.00
2022-08-28T22:38:53.338Z,101452.00
2022-08-28T22:41:20.568Z,101453.00
2022-08-28T22:43:48.293Z,101447.00
2022-08-28T22:46:18.684Z,101445.00
2022-08-28T22:48:46.116Z,101448.00
2022-08-28T22:51:15.675Z,101451.00
2022-08-28T22:53:43.230Z,101446.00
2022-08-28T22:56:11.338Z,101445.00
2022-08-28T22:58:38.804Z,101443.00
2022-08-28T23:01:13.047Z,101444.00
2022-08-28T23:03:39.970Z,101445.00
2022-08-28T23:06:07.857Z,101451.00
2022-08-28T23:08:34.917Z,101445.00
2022-08-28T23:11:01.573Z,101449.00
2022-08-28T23:13:29.431Z,101444.00
2022-08-28T23:15:55.967Z,101451.00
2022-08-28T23:18:23.662Z,101447.00
2022-08-28T23:20:51.432Z,101444.00
2022-08-28T23:23:19.015Z,101444.00
2022-08-28T23:25:45.873Z,101445.00
2022-08-28T23:28:13.365Z,101441.00
2022-08-28T23:30:43.993Z,101435.00
2022-08-28T23:33:21.193Z,101435.00
2022-08-28T23:35:51.535Z,101434.00
2022-08-28T23:38:19.509Z,101435.00
2022-08-28T23:40:47.983Z,101436.00
2022-08-28T23:43:15.011Z,101439.00
2022-08-28T23:45:43.509Z,101439.00
2022-08-28T23:48:10.353Z,101444.00
2022-08-28T23:50:39.627Z,101445.00
2022-08-28T23:53:08.366Z,101445.00
2022-08-28T23:55:36.126Z,101451.00
2022-08-28T23:58:03.646Z,101446.00
